Terminal Aerodrome Forecast
Issued by NWS Binghamton, NY

Home | Current Version | Previous Version | Text Only | Print | Product List | Glossary On
Versions: 1 2 3 4 5 6 7 8 9 10 11 12 13 14 15 16
000
FTUS41 KBGM 310917 AAA
TAFAVP
TAF AMD
KAVP 310917Z 3109/0106 VRB03KT P6SM SCT060
      TEMPO 3110/3112 4SM BR
     FM311400 27010KT P6SM BKN050
     FM010000 VRB03KT P6SM SKC=

USA.gov is the U.S. government's official web portal to all federal, state and local government web resources and services.